sensor_id;sensor_type;location;lat;lon;timestamp;temperature;humidity
5828;DHT22;42583;50.240;8.444;2024-01-07T00:02:30;3.30;99.90
5828;DHT22;42583;50.240;8.444;2024-01-07T00:17:31;3.20;99.90
5828;DHT22;42583;50.240;8.444;2024-01-07T00:32:32;3.00;99.90
5828;DHT22;42583;50.240;8.444;2024-01-07T00:47:32;2.90;99.90
5828;DHT22;42583;50.240;8.444;2024-01-07T01:02:33;2.80;99.90
5828;DHT22;42583;50.240;8.444;2024-01-07T01:17:33;2.80;99.90
5828;DHT22;42583;50.240;8.444;2024-01-07T01:32:34;2.70;99.90
5828;DHT22;42583;50.240;8.444;2024-01-07T01:47:34;2.70;99.90
5828;DHT22;42583;50.240;8.444;2024-01-07T02:02:35;2.70;99.90
5828;DHT22;42583;50.240;8.444;2024-01-07T02:17:36;2.60;99.90
5828;DHT22;42583;50.240;8.444;2024-01-07T02:32:36;2.60;99.90
5828;DHT22;42583;50.240;8.444;2024-01-07T02:47:38;2.70;99.90
5828;DHT22;42583;50.240;8.444;2024-01-07T03:02:38;2.60;99.90
5828;DHT22;42583;50.240;8.444;2024-01-07T03:17:39;2.70;99.90
5828;DHT22;42583;50.240;8.444;2024-01-07T03:32:39;2.70;99.90
5828;DHT22;42583;50.240;8.444;2024-01-07T03:47:40;2.70;99.90
5828;DHT22;42583;50.240;8.444;2024-01-07T04:02:41;2.70;99.90
5828;DHT22;42583;50.240;8.444;2024-01-07T04:17:42;2.70;99.90
5828;DHT22;42583;50.240;8.444;2024-01-07T04:32:42;2.60;99.90
5828;DHT22;42583;50.240;8.444;2024-01-07T04:47:43;2.50;99.90
5828;DHT22;42583;50.240;8.444;2024-01-07T05:02:44;2.60;99.90
5828;DHT22;42583;50.240;8.444;2024-01-07T05:17:44;2.50;99.90
5828;DHT22;42583;50.240;8.444;2024-01-07T05:32:45;2.50;99.90
5828;DHT22;42583;50.240;8.444;2024-01-07T05:47:45;2.50;99.90
5828;DHT22;42583;50.240;8.444;2024-01-07T06:02:46;2.40;99.90
5828;DHT22;42583;50.240;8.444;2024-01-07T06:17:46;2.40;99.90
5828;DHT22;42583;50.240;8.444;2024-01-07T06:32:47;2.30;99.90
5828;DHT22;42583;50.240;8.444;2024-01-07T06:47:48;2.20;99.90
5828;DHT22;42583;50.240;8.444;2024-01-07T07:02:49;2.10;99.90
5828;DHT22;42583;50.240;8.444;2024-01-07T07:17:49;2.00;99.90
5828;DHT22;42583;50.240;8.444;2024-01-07T07:32:50;1.70;99.90
5828;DHT22;42583;50.240;8.444;2024-01-07T07:47:51;1.70;99.90
5828;DHT22;42583;50.240;8.444;2024-01-07T08:02:52;1.60;99.90
5828;DHT22;42583;50.240;8.444;2024-01-07T08:17:53;1.50;99.90
5828;DHT22;42583;50.240;8.444;2024-01-07T08:32:53;1.50;99.90
5828;DHT22;42583;50.240;8.444;2024-01-07T08:47:54;1.50;99.90
5828;DHT22;42583;50.240;8.444;2024-01-07T09:02:54;1.50;99.90
5828;DHT22;42583;50.240;8.444;2024-01-07T09:17:55;1.40;99.90
5828;DHT22;42583;50.240;8.444;2024-01-07T09:32:55;1.30;99.90
5828;DHT22;42583;50.240;8.444;2024-01-07T09:47:56;1.40;99.90
5828;DHT22;42583;50.240;8.444;2024-01-07T10:02:56;1.20;99.90
5828;DHT22;42583;50.240;8.444;2024-01-07T10:18:07;1.20;99.90
5828;DHT22;42583;50.240;8.444;2024-01-07T10:33:08;1.10;99.90
5828;DHT22;42583;50.240;8.444;2024-01-07T10:48:09;1.00;99.90
5828;DHT22;42583;50.240;8.444;2024-01-07T11:03:27;1.00;99.90
5828;DHT22;42583;50.240;8.444;2024-01-07T11:18:31;0.70;99.90
5828;DHT22;42583;50.240;8.444;2024-01-07T11:33:36;0.70;99.90
5828;DHT22;42583;50.240;8.444;2024-01-07T11:48:36;0.60;99.90
5828;DHT22;42583;50.240;8.444;2024-01-07T12:03:37;0.70;99.90
5828;DHT22;42583;50.240;8.444;2024-01-07T12:18:41;0.50;99.90
5828;DHT22;42583;50.240;8.444;2024-01-07T12:33:42;0.40;99.90
5828;DHT22;42583;50.240;8.444;2024-01-07T12:48:43;0.40;99.90
5828;DHT22;42583;50.240;8.444;2024-01-07T13:03:44;0.20;99.90
5828;DHT22;42583;50.240;8.444;2024-01-07T13:18:44;0.20;99.90
5828;DHT22;42583;50.240;8.444;2024-01-07T13:33:45;0.00;99.90
5828;DHT22;42583;50.240;8.444;2024-01-07T13:48:46;0.00;99.90
5828;DHT22;42583;50.240;8.444;2024-01-07T14:03:47;-0.20;99.90
5828;DHT22;42583;50.240;8.444;2024-01-07T14:18:48;-0.20;99.90
5828;DHT22;42583;50.240;8.444;2024-01-07T14:33:49;-0.40;99.90
5828;DHT22;42583;50.240;8.444;2024-01-07T14:48:50;-0.50;99.90
5828;DHT22;42583;50.240;8.444;2024-01-07T15:03:51;-0.70;99.90
5828;DHT22;42583;50.240;8.444;2024-01-07T15:18:51;-0.90;99.90
5828;DHT22;42583;50.240;8.444;2024-01-07T15:33:52;-1.10;99.90
5828;DHT22;42583;50.240;8.444;2024-01-07T15:48:52;-1.30;99.90
5828;DHT22;42583;50.240;8.444;2024-01-07T16:03:53;-1.60;99.90
5828;DHT22;42583;50.240;8.444;2024-01-07T16:18:54;-1.60;99.90
5828;DHT22;42583;50.240;8.444;2024-01-07T16:33:55;-1.80;99.90
5828;DHT22;42583;50.240;8.444;2024-01-07T16:48:55;-2.00;99.90
5828;DHT22;42583;50.240;8.444;2024-01-07T17:03:56;-2.10;99.90
5828;DHT22;42583;50.240;8.444;2024-01-07T17:18:57;-2.30;99.90
5828;DHT22;42583;50.240;8.444;2024-01-07T17:33:57;-2.50;99.90
5828;DHT22;42583;50.240;8.444;2024-01-07T17:48:58;-2.60;99.90
5828;DHT22;42583;50.240;8.444;2024-01-07T18:04:00;-2.60;99.90
5828;DHT22;42583;50.240;8.444;2024-01-07T18:19:00;-2.60;99.90
5828;DHT22;42583;50.240;8.444;2024-01-07T18:34:02;-2.70;99.90
5828;DHT22;42583;50.240;8.444;2024-01-07T18:49:02;-2.70;99.90
5828;DHT22;42583;50.240;8.444;2024-01-07T19:04:03;-2.80;99.90
5828;DHT22;42583;50.240;8.444;2024-01-07T19:19:05;-2.70;99.90
5828;DHT22;42583;50.240;8.444;2024-01-07T19:34:05;-2.70;99.90
5828;DHT22;42583;50.240;8.444;2024-01-07T19:49:06;-2.60;99.90
5828;DHT22;42583;50.240;8.444;2024-01-07T20:04:08;-2.70;99.90
5828;DHT22;42583;50.240;8.444;2024-01-07T20:19:08;-2.70;99.90
5828;DHT22;42583;50.240;8.444;2024-01-07T20:34:09;-2.70;99.90
5828;DHT22;42583;50.240;8.444;2024-01-07T20:49:10;-2.70;99.90
5828;DHT22;42583;50.240;8.444;2024-01-07T21:04:11;-2.70;99.90
5828;DHT22;42583;50.240;8.444;2024-01-07T21:19:11;-2.60;99.90
5828;DHT22;42583;50.240;8.444;2024-01-07T21:34:12;-2.60;99.90
5828;DHT22;42583;50.240;8.444;2024-01-07T21:49:13;-2.50;99.90
5828;DHT22;42583;50.240;8.444;2024-01-07T22:04:17;-2.60;99.90
5828;DHT22;42583;50.240;8.444;2024-01-07T22:19:17;-2.60;99.90
5828;DHT22;42583;50.240;8.444;2024-01-07T22:34:18;-2.60;99.90
5828;DHT22;42583;50.240;8.444;2024-01-07T22:49:18;-2.60;99.90
5828;DHT22;42583;50.240;8.444;2024-01-07T23:04:19;-2.60;99.90
5828;DHT22;42583;50.240;8.444;2024-01-07T23:19:20;-2.60;99.90
5828;DHT22;42583;50.240;8.444;2024-01-07T23:34:20;-2.60;99.90
5828;DHT22;42583;50.240;8.444;2024-01-07T23:49:21;-2.60;99.90
